sensor_id;sensor_type;location;lat;lon;timestamp;pressure;altitude;pressure_sealevel;temperature;humidity
10668;BME280;5382;42.136;24.796;2022-12-26T00:02:11;100904.44;;;6.35;100.00
10668;BME280;5382;42.136;24.796;2022-12-26T00:04:38;100908.53;;;6.42;100.00
10668;BME280;5382;42.136;24.796;2022-12-26T00:07:04;100913.50;;;6.50;100.00
10668;BME280;5382;42.136;24.796;2022-12-26T00:09:31;100906.06;;;6.61;100.00
10668;BME280;5382;42.136;24.796;2022-12-26T00:11:59;100919.31;;;6.58;100.00
10668;BME280;5382;42.136;24.796;2022-12-26T00:14:26;100914.59;;;6.44;100.00
10668;BME280;5382;42.136;24.796;2022-12-26T00:16:53;100910.44;;;6.39;100.00
10668;BME280;5382;42.136;24.796;2022-12-26T00:19:20;100925.09;;;6.22;100.00
10668;BME280;5382;42.136;24.796;2022-12-26T00:21:47;100927.50;;;6.27;100.00
10668;BME280;5382;42.136;24.796;2022-12-26T00:24:14;100943.94;;;6.33;100.00
10668;BME280;5382;42.136;24.796;2022-12-26T00:26:40;100938.66;;;6.33;100.00
10668;BME280;5382;42.136;24.796;2022-12-26T00:29:08;100944.78;;;6.34;100.00
10668;BME280;5382;42.136;24.796;2022-12-26T00:31:35;100946.69;;;6.30;100.00
10668;BME280;5382;42.136;24.796;2022-12-26T00:34:02;100938.09;;;6.25;100.00
10668;BME280;5382;42.136;24.796;2022-12-26T00:36:31;100954.88;;;6.21;100.00
10668;BME280;5382;42.136;24.796;2022-12-26T00:38:59;100951.81;;;6.10;100.00
10668;BME280;5382;42.136;24.796;2022-12-26T00:41:26;100957.25;;;6.04;100.00
10668;BME280;5382;42.136;24.796;2022-12-26T00:43:54;100934.53;;;5.78;100.00
10668;BME280;5382;42.136;24.796;2022-12-26T00:46:25;100949.19;;;5.83;100.00
10668;BME280;5382;42.136;24.796;2022-12-26T00:48:52;100961.72;;;5.77;100.00
10668;BME280;5382;42.136;24.796;2022-12-26T00:51:19;100948.72;;;5.72;100.00
10668;BME280;5382;42.136;24.796;2022-12-26T00:53:46;100957.13;;;5.57;100.00
10668;BME280;5382;42.136;24.796;2022-12-26T00:56:13;100950.03;;;5.60;100.00
10668;BME280;5382;42.136;24.796;2022-12-26T00:58:40;100950.63;;;5.68;100.00
10668;BME280;5382;42.136;24.796;2022-12-26T01:01:11;100956.94;;;5.63;100.00
10668;BME280;5382;42.136;24.796;2022-12-26T01:03:40;100947.59;;;5.54;100.00
10668;BME280;5382;42.136;24.796;2022-12-26T01:06:06;100948.44;;;5.55;100.00
10668;BME280;5382;42.136;24.796;2022-12-26T01:08:33;100944.72;;;5.62;100.00
10668;BME280;5382;42.136;24.796;2022-12-26T01:11:05;100949.00;;;5.64;100.00
10668;BME280;5382;42.136;24.796;2022-12-26T01:13:32;100943.59;;;5.69;100.00
10668;BME280;5382;42.136;24.796;2022-12-26T01:15:59;100880.41;;;5.23;100.00
10668;BME280;5382;42.136;24.796;2022-12-26T01:18:26;100944.34;;;5.73;100.00
10668;BME280;5382;42.136;24.796;2022-12-26T01:20:58;100943.91;;;5.60;100.00
10668;BME280;5382;42.136;24.796;2022-12-26T01:23:25;100963.94;;;5.62;100.00
10668;BME280;5382;42.136;24.796;2022-12-26T01:25:52;100966.94;;;5.52;100.00
10668;BME280;5382;42.136;24.796;2022-12-26T01:28:19;100969.44;;;5.55;100.00
10668;BME280;5382;42.136;24.796;2022-12-26T01:30:46;100967.94;;;5.21;100.00
10668;BME280;5382;42.136;24.796;2022-12-26T01:33:13;100962.41;;;5.03;100.00
10668;BME280;5382;42.136;24.796;2022-12-26T01:35:48;100967.44;;;5.10;100.00
10668;BME280;5382;42.136;24.796;2022-12-26T01:38:17;100962.31;;;5.07;100.00
10668;BME280;5382;42.136;24.796;2022-12-26T01:40:45;100968.13;;;5.16;100.00
10668;BME280;5382;42.136;24.796;2022-12-26T01:43:13;100972.69;;;5.10;100.00
10668;BME280;5382;42.136;24.796;2022-12-26T01:45:40;100967.00;;;4.95;100.00
10668;BME280;5382;42.136;24.796;2022-12-26T01:48:14;100972.69;;;4.81;100.00
10668;BME280;5382;42.136;24.796;2022-12-26T01:50:45;100972.19;;;4.70;100.00
10668;BME280;5382;42.136;24.796;2022-12-26T01:53:16;100934.44;;;4.46;100.00
10668;BME280;5382;42.136;24.796;2022-12-26T01:55:47;100974.47;;;4.81;100.00
10668;BME280;5382;42.136;24.796;2022-12-26T01:58:23;100972.31;;;4.94;100.00
10668;BME280;5382;42.136;24.796;2022-12-26T02:00:53;100981.66;;;5.02;100.00
10668;BME280;5382;42.136;24.796;2022-12-26T02:03:20;100969.34;;;5.05;100.00
10668;BME280;5382;42.136;24.796;2022-12-26T02:06:07;100972.59;;;5.13;100.00
10668;BME280;5382;42.136;24.796;2022-12-26T02:08:35;100976.31;;;5.06;100.00
10668;BME280;5382;42.136;24.796;2022-12-26T02:11:10;100995.00;;;4.95;100.00
10668;BME280;5382;42.136;24.796;2022-12-26T02:13:39;100978.41;;;4.94;100.00
10668;BME280;5382;42.136;24.796;2022-12-26T02:16:09;100979.13;;;4.99;100.00
10668;BME280;5382;42.136;24.796;2022-12-26T02:18:36;100983.16;;;5.11;100.00
10668;BME280;5382;42.136;24.796;2022-12-26T02:21:19;100978.03;;;5.07;100.00
10668;BME280;5382;42.136;24.796;2022-12-26T02:24:20;100987.03;;;4.98;100.00
10668;BME280;5382;42.136;24.796;2022-12-26T02:27:23;100984.41;;;5.26;100.00
10668;BME280;5382;42.136;24.796;2022-12-26T02:30:29;100987.56;;;5.37;100.00
10668;BME280;5382;42.136;24.796;2022-12-26T02:33:12;100987.56;;;5.37;100.00
10668;BME280;5382;42.136;24.796;2022-12-26T02:35:55;100992.03;;;5.34;100.00
10668;BME280;5382;42.136;24.796;2022-12-26T02:38:33;100976.25;;;5.35;100.00
10668;BME280;5382;42.136;24.796;2022-12-26T02:41:12;100977.19;;;5.33;100.00
10668;BME280;5382;42.136;24.796;2022-12-26T02:43:51;100979.47;;;5.17;100.00
10668;BME280;5382;42.136;24.796;2022-12-26T02:46:29;100984.66;;;5.18;100.00
10668;BME280;5382;42.136;24.796;2022-12-26T02:49:30;100978.75;;;5.12;100.00
10668;BME280;5382;42.136;24.796;2022-12-26T02:52:25;100987.63;;;5.08;100.00
10668;BME280;5382;42.136;24.796;2022-12-26T02:55:15;100990.78;;;5.19;100.00
10668;BME280;5382;42.136;24.796;2022-12-26T02:58:05;100991.56;;;5.21;100.00
10668;BME280;5382;42.136;24.796;2022-12-26T03:00:55;100984.56;;;5.21;100.00
10668;BME280;5382;42.136;24.796;2022-12-26T03:03:43;100975.81;;;5.21;100.00
10668;BME280;5382;42.136;24.796;2022-12-26T03:06:32;100938.09;;;4.98;100.00
10668;BME280;5382;42.136;24.796;2022-12-26T03:09:20;100970.88;;;5.12;100.00
10668;BME280;5382;42.136;24.796;2022-12-26T03:12:07;100967.59;;;5.05;100.00
10668;BME280;5382;42.136;24.796;2022-12-26T03:14:54;100963.75;;;5.15;100.00
10668;BME280;5382;42.136;24.796;2022-12-26T03:17:26;100966.28;;;5.18;100.00
10668;BME280;5382;42.136;24.796;2022-12-26T03:19:58;100972.34;;;5.20;100.00
10668;BME280;5382;42.136;24.796;2022-12-26T03:22:33;100967.47;;;5.08;100.00
10668;BME280;5382;42.136;24.796;2022-12-26T03:25:03;100966.69;;;5.06;100.00
10668;BME280;5382;42.136;24.796;2022-12-26T03:27:48;100958.66;;;5.11;100.00
10668;BME280;5382;42.136;24.796;2022-12-26T03:30:15;100963.63;;;4.92;100.00
10668;BME280;5382;42.136;24.796;2022-12-26T03:33:00;100942.63;;;4.65;100.00
10668;BME280;5382;42.136;24.796;2022-12-26T03:35:32;100967.66;;;4.75;100.00
10668;BME280;5382;42.136;24.796;2022-12-26T03:38:04;100940.50;;;4.48;100.00
10668;BME280;5382;42.136;24.796;2022-12-26T03:40:42;100957.22;;;4.44;100.00
10668;BME280;5382;42.136;24.796;2022-12-26T03:43:46;100976.22;;;4.52;100.00
10668;BME280;5382;42.136;24.796;2022-12-26T03:46:41;100974.53;;;4.50;100.00
10668;BME280;5382;42.136;24.796;2022-12-26T03:49:28;100973.53;;;4.54;100.00
10668;BME280;5382;42.136;24.796;2022-12-26T03:52:32;100980.00;;;4.42;100.00
10668;BME280;5382;42.136;24.796;2022-12-26T03:55:25;100992.28;;;4.40;100.00
10668;BME280;5382;42.136;24.796;2022-12-26T03:58:16;100988.31;;;4.25;100.00
10668;BME280;5382;42.136;24.796;2022-12-26T04:01:06;100985.41;;;4.05;100.00
10668;BME280;5382;42.136;24.796;2022-12-26T04:03:52;100989.31;;;3.90;100.00
10668;BME280;5382;42.136;24.796;2022-12-26T04:06:44;100994.22;;;3.69;100.00
10668;BME280;5382;42.136;24.796;2022-12-26T04:09:34;100987.50;;;3.59;100.00
10668;BME280;5382;42.136;24.796;2022-12-26T04:12:23;101000.06;;;3.45;100.00
10668;BME280;5382;42.136;24.796;2022-12-26T04:15:15;101002.16;;;3.31;100.00
10668;BME280;5382;42.136;24.796;2022-12-26T04:18:07;101011.31;;;3.13;100.00
10668;BME280;5382;42.136;24.796;2022-12-26T04:21:03;101016.47;;;3.16;100.00
10668;BME280;5382;42.136;24.796;2022-12-26T04:23:56;101006.25;;;3.05;100.00
10668;BME280;5382;42.136;24.796;2022-12-26T04:26:44;101002.72;;;3.06;100.00
10668;BME280;5382;42.136;24.796;2022-12-26T04:29:30;101001.97;;;3.01;100.00
10668;BME280;5382;42.136;24.796;2022-12-26T04:32:19;101008.69;;;3.13;100.00
10668;BME280;5382;42.136;24.796;2022-12-26T04:35:11;101002.44;;;3.18;100.00
10668;BME280;5382;42.136;24.796;2022-12-26T04:37:59;101008.56;;;3.17;100.00
10668;BME280;5382;42.136;24.796;2022-12-26T04:40:49;101016.47;;;3.14;100.00
10668;BME280;5382;42.136;24.796;2022-12-26T04:43:36;101017.06;;;3.27;100.00
10668;BME280;5382;42.136;24.796;2022-12-26T04:46:22;101024.03;;;3.26;100.00
10668;BME280;5382;42.136;24.796;2022-12-26T04:48:52;101025.75;;;3.27;100.00
10668;BME280;5382;42.136;24.796;2022-12-26T04:51:37;101019.56;;;3.32;100.00
10668;BME280;5382;42.136;24.796;2022-12-26T04:54:04;101013.38;;;3.36;100.00
10668;BME280;5382;42.136;24.796;2022-12-26T04:56:32;101024.63;;;3.39;100.00
10668;BME280;5382;42.136;24.796;2022-12-26T04:59:00;101024.69;;;3.36;100.00
10668;BME280;5382;42.136;24.796;2022-12-26T05:01:27;101027.06;;;3.47;100.00
10668;BME280;5382;42.136;24.796;2022-12-26T05:04:12;101026.00;;;3.54;100.00
10668;BME280;5382;42.136;24.796;2022-12-26T05:06:57;101026.03;;;3.53;100.00
10668;BME280;5382;42.136;24.796;2022-12-26T05:09:42;101036.97;;;3.68;100.00
10668;BME280;5382;42.136;24.796;2022-12-26T05:12:09;101047.25;;;3.76;100.00
10668;BME280;5382;42.136;24.796;2022-12-26T05:14:37;101040.19;;;3.80;100.00
10668;BME280;5382;42.136;24.796;2022-12-26T05:17:05;101051.25;;;3.91;100.00
10668;BME280;5382;42.136;24.796;2022-12-26T05:19:50;101054.84;;;3.87;100.00
10668;BME280;5382;42.136;24.796;2022-12-26T05:22:37;101055.53;;;3.93;100.00
10668;BME280;5382;42.136;24.796;2022-12-26T05:25:24;101072.56;;;3.76;100.00
10668;BME280;5382;42.136;24.796;2022-12-26T05:28:09;101065.53;;;3.43;100.00
10668;BME280;5382;42.136;24.796;2022-12-26T05:30:55;101063.00;;;3.39;100.00
10668;BME280;5382;42.136;24.796;2022-12-26T05:33:22;101074.16;;;3.47;100.00
10668;BME280;5382;42.136;24.796;2022-12-26T05:36:06;101064.00;;;3.33;100.00
10668;BME280;5382;42.136;24.796;2022-12-26T05:38:33;101069.28;;;3.32;100.00
10668;BME280;5382;42.136;24.796;2022-12-26T05:41:00;101069.13;;;3.38;100.00
10668;BME280;5382;42.136;24.796;2022-12-26T05:43:27;101056.69;;;3.47;100.00
10668;BME280;5382;42.136;24.796;2022-12-26T05:45:56;101068.72;;;3.55;100.00
10668;BME280;5382;42.136;24.796;2022-12-26T05:48:23;101068.84;;;3.50;100.00
10668;BME280;5382;42.136;24.796;2022-12-26T05:50:50;101069.75;;;3.49;100.00
10668;BME280;5382;42.136;24.796;2022-12-26T05:53:17;101076.84;;;3.44;100.00
10668;BME280;5382;42.136;24.796;2022-12-26T05:55:44;101081.25;;;3.40;100.00
10668;BME280;5382;42.136;24.796;2022-12-26T05:58:11;101082.81;;;3.49;100.00
10668;BME280;5382;42.136;24.796;2022-12-26T06:00:37;101082.25;;;3.36;100.00
10668;BME280;5382;42.136;24.796;2022-12-26T06:03:05;101082.28;;;3.35;100.00
10668;BME280;5382;42.136;24.796;2022-12-26T06:05:32;101073.94;;;3.17;100.00
10668;BME280;5382;42.136;24.796;2022-12-26T06:07:59;101068.84;;;3.11;100.00
10668;BME280;5382;42.136;24.796;2022-12-26T06:10:26;101082.44;;;2.88;100.00
10668;BME280;5382;42.136;24.796;2022-12-26T06:12:54;101080.03;;;2.77;100.00
10668;BME280;5382;42.136;24.796;2022-12-26T06:15:20;101083.34;;;2.86;100.00
10668;BME280;5382;42.136;24.796;2022-12-26T06:17:47;101076.13;;;2.97;100.00
10668;BME280;5382;42.136;24.796;2022-12-26T06:20:16;101088.00;;;3.13;100.00
10668;BME280;5382;42.136;24.796;2022-12-26T06:22:42;101086.22;;;3.15;100.00
10668;BME280;5382;42.136;24.796;2022-12-26T06:25:09;101071.53;;;3.08;100.00
10668;BME280;5382;42.136;24.796;2022-12-26T06:27:36;101087.66;;;3.28;100.00
10668;BME280;5382;42.136;24.796;2022-12-26T06:30:03;101095.69;;;3.19;100.00
10668;BME280;5382;42.136;24.796;2022-12-26T06:32:30;101097.31;;;3.25;100.00
10668;BME280;5382;42.136;24.796;2022-12-26T06:34:57;101094.34;;;3.01;100.00
10668;BME280;5382;42.136;24.796;2022-12-26T06:37:25;101098.25;;;3.22;100.00
10668;BME280;5382;42.136;24.796;2022-12-26T06:39:52;101099.72;;;3.36;100.00
10668;BME280;5382;42.136;24.796;2022-12-26T06:42:19;101101.50;;;3.34;100.00
10668;BME280;5382;42.136;24.796;2022-12-26T06:44:45;101103.00;;;3.44;100.00
10668;BME280;5382;42.136;24.796;2022-12-26T06:47:12;101094.25;;;3.45;100.00
10668;BME280;5382;42.136;24.796;2022-12-26T06:49:39;101113.22;;;3.55;100.00
10668;BME280;5382;42.136;24.796;2022-12-26T06:52:06;101104.44;;;3.57;100.00
10668;BME280;5382;42.136;24.796;2022-12-26T06:54:34;101104.16;;;3.69;100.00
10668;BME280;5382;42.136;24.796;2022-12-26T06:57:01;101111.56;;;3.86;100.00
10668;BME280;5382;42.136;24.796;2022-12-26T06:59:27;101099.97;;;3.97;100.00
10668;BME280;5382;42.136;24.796;2022-12-26T07:01:54;101100.31;;;4.17;100.00
10668;BME280;5382;42.136;24.796;2022-12-26T07:04:21;101107.03;;;4.29;100.00
10668;BME280;5382;42.136;24.796;2022-12-26T07:06:49;101044.75;;;4.06;100.00
10668;BME280;5382;42.136;24.796;2022-12-26T07:09:17;101111.38;;;4.61;100.00
10668;BME280;5382;42.136;24.796;2022-12-26T07:11:47;101080.22;;;4.50;100.00
10668;BME280;5382;42.136;24.796;2022-12-26T07:14:15;101120.28;;;4.87;100.00
10668;BME280;5382;42.136;24.796;2022-12-26T07:16:43;101113.88;;;4.95;100.00
10668;BME280;5382;42.136;24.796;2022-12-26T07:19:11;101120.44;;;5.12;100.00
10668;BME280;5382;42.136;24.796;2022-12-26T07:21:39;101106.78;;;5.29;100.00
10668;BME280;5382;42.136;24.796;2022-12-26T07:24:08;101115.44;;;5.32;100.00
10668;BME280;5382;42.136;24.796;2022-12-26T07:26:39;101126.09;;;5.56;100.00
10668;BME280;5382;42.136;24.796;2022-12-26T07:29:09;101131.94;;;5.64;100.00
10668;BME280;5382;42.136;24.796;2022-12-26T07:31:36;101092.44;;;5.40;100.00
10668;BME280;5382;42.136;24.796;2022-12-26T07:34:03;101141.13;;;5.79;100.00
10668;BME280;5382;42.136;24.796;2022-12-26T07:36:30;101138.25;;;5.86;100.00
10668;BME280;5382;42.136;24.796;2022-12-26T07:38:57;101130.03;;;5.97;100.00
10668;BME280;5382;42.136;24.796;2022-12-26T07:41:23;101128.56;;;6.15;100.00
10668;BME280;5382;42.136;24.796;2022-12-26T07:44:10;101133.50;;;6.24;100.00
10668;BME280;5382;42.136;24.796;2022-12-26T07:46:37;101140.16;;;6.34;100.00
10668;BME280;5382;42.136;24.796;2022-12-26T07:49:04;101137.47;;;6.36;100.00
10668;BME280;5382;42.136;24.796;2022-12-26T07:51:30;101142.13;;;6.53;100.00
10668;BME280;5382;42.136;24.796;2022-12-26T07:53:58;101146.63;;;6.51;100.00
10668;BME280;5382;42.136;24.796;2022-12-26T07:56:24;101147.91;;;6.64;100.00
10668;BME280;5382;42.136;24.796;2022-12-26T07:58:51;101149.28;;;6.74;100.00
10668;BME280;5382;42.136;24.796;2022-12-26T08:01:19;101155.81;;;6.88;100.00
10668;BME280;5382;42.136;24.796;2022-12-26T08:03:47;101126.94;;;6.86;100.00
10668;BME280;5382;42.136;24.796;2022-12-26T08:06:14;101157.50;;;7.14;100.00
10668;BME280;5382;42.136;24.796;2022-12-26T08:08:41;101156.41;;;7.19;100.00
10668;BME280;5382;42.136;24.796;2022-12-26T08:11:12;101161.19;;;7.32;100.00
10668;BME280;5382;42.136;24.796;2022-12-26T08:13:39;101155.41;;;7.46;100.00
10668;BME280;5382;42.136;24.796;2022-12-26T08:16:08;101147.56;;;7.44;100.00
10668;BME280;5382;42.136;24.796;2022-12-26T08:18:37;101156.84;;;7.54;100.00
10668;BME280;5382;42.136;24.796;2022-12-26T08:21:04;101146.91;;;7.61;100.00
10668;BME280;5382;42.136;24.796;2022-12-26T08:23:30;101152.41;;;7.77;100.00
10668;BME280;5382;42.136;24.796;2022-12-26T08:26:03;101150.88;;;7.93;100.00
10668;BME280;5382;42.136;24.796;2022-12-26T08:28:30;101154.19;;;7.98;100.00
10668;BME280;5382;42.136;24.796;2022-12-26T08:30:56;101155.13;;;8.18;100.00
10668;BME280;5382;42.136;24.796;2022-12-26T08:33:23;101150.41;;;8.26;100.00
10668;BME280;5382;42.136;24.796;2022-12-26T08:35:51;101149.16;;;8.35;100.00
10668;BME280;5382;42.136;24.796;2022-12-26T08:38:18;101138.22;;;8.44;100.00
10668;BME280;5382;42.136;24.796;2022-12-26T08:40:52;101110.78;;;8.27;100.00
10668;BME280;5382;42.136;24.796;2022-12-26T08:43:20;101134.50;;;8.49;100.00
10668;BME280;5382;42.136;24.796;2022-12-26T08:45:55;101138.13;;;8.47;100.00
10668;BME280;5382;42.136;24.796;2022-12-26T08:48:22;101129.66;;;8.59;100.00
10668;BME280;5382;42.136;24.796;2022-12-26T08:50:56;101133.88;;;8.63;100.00
10668;BME280;5382;42.136;24.796;2022-12-26T08:53:23;101124.34;;;8.80;100.00
10668;BME280;5382;42.136;24.796;2022-12-26T08:55:50;101138.00;;;8.89;100.00
10668;BME280;5382;42.136;24.796;2022-12-26T08:58:16;101128.09;;;8.94;100.00
10668;BME280;5382;42.136;24.796;2022-12-26T09:00:43;101122.16;;;8.89;100.00
10668;BME280;5382;42.136;24.796;2022-12-26T09:03:10;101113.91;;;8.97;100.00
10668;BME280;5382;42.136;24.796;2022-12-26T09:05:37;101114.53;;;9.02;100.00
10668;BME280;5382;42.136;24.796;2022-12-26T09:08:05;101117.53;;;9.13;100.00
10668;BME280;5382;42.136;24.796;2022-12-26T09:10:32;101097.84;;;9.21;100.00
10668;BME280;5382;42.136;24.796;2022-12-26T09:12:59;101110.63;;;9.30;100.00
10668;BME280;5382;42.136;24.796;2022-12-26T09:15:26;101099.97;;;9.31;100.00
10668;BME280;5382;42.136;24.796;2022-12-26T09:17:53;101106.38;;;9.45;100.00
10668;BME280;5382;42.136;24.796;2022-12-26T09:20:19;101100.72;;;9.52;100.00
10668;BME280;5382;42.136;24.796;2022-12-26T09:22:46;101090.31;;;9.68;100.00
10668;BME280;5382;42.136;24.796;2022-12-26T09:25:18;101082.75;;;9.78;100.00
10668;BME280;5382;42.136;24.796;2022-12-26T09:27:45;101083.47;;;9.99;100.00
10668;BME280;5382;42.136;24.796;2022-12-26T09:30:12;101079.50;;;9.90;100.00
10668;BME280;5382;42.136;24.796;2022-12-26T09:32:39;101072.34;;;9.75;100.00
10668;BME280;5382;42.136;24.796;2022-12-26T09:35:07;101073.19;;;9.75;100.00
10668;BME280;5382;42.136;24.796;2022-12-26T09:37:33;101067.22;;;9.72;100.00
10668;BME280;5382;42.136;24.796;2022-12-26T09:40:00;101064.97;;;9.81;100.00
10668;BME280;5382;42.136;24.796;2022-12-26T09:42:33;101065.59;;;9.87;100.00
10668;BME280;5382;42.136;24.796;2022-12-26T09:45:08;101034.41;;;9.76;100.00
10668;BME280;5382;42.136;24.796;2022-12-26T09:47:42;101060.16;;;9.90;100.00
10668;BME280;5382;42.136;24.796;2022-12-26T09:50:15;101053.97;;;10.07;100.00
10668;BME280;5382;42.136;24.796;2022-12-26T09:52:47;101059.44;;;10.21;100.00
10668;BME280;5382;42.136;24.796;2022-12-26T09:55:33;101052.94;;;10.28;100.00
10668;BME280;5382;42.136;24.796;2022-12-26T09:58:11;101058.25;;;10.26;100.00
10668;BME280;5382;42.136;24.796;2022-12-26T10:00:44;101057.41;;;10.26;100.00
10668;BME280;5382;42.136;24.796;2022-12-26T10:03:14;101049.09;;;10.34;100.00
10668;BME280;5382;42.136;24.796;2022-12-26T10:06:00;101055.34;;;10.33;100.00
10668;BME280;5382;42.136;24.796;2022-12-26T10:08:42;101046.13;;;10.40;100.00
10668;BME280;5382;42.136;24.796;2022-12-26T10:11:18;101039.81;;;10.42;100.00
10668;BME280;5382;42.136;24.796;2022-12-26T10:13:57;101046.44;;;10.51;100.00
10668;BME280;5382;42.136;24.796;2022-12-26T10:16:37;101051.09;;;10.46;100.00
10668;BME280;5382;42.136;24.796;2022-12-26T10:19:15;101051.22;;;10.60;100.00
10668;BME280;5382;42.136;24.796;2022-12-26T10:21:51;101036.91;;;10.80;100.00
10668;BME280;5382;42.136;24.796;2022-12-26T10:24:26;101037.88;;;10.79;100.00
10668;BME280;5382;42.136;24.796;2022-12-26T10:27:00;101038.53;;;10.83;100.00
10668;BME280;5382;42.136;24.796;2022-12-26T10:29:32;101030.09;;;10.92;100.00
10668;BME280;5382;42.136;24.796;2022-12-26T10:32:04;101033.59;;;10.93;100.00
10668;BME280;5382;42.136;24.796;2022-12-26T10:34:38;101027.16;;;10.97;100.00
10668;BME280;5382;42.136;24.796;2022-12-26T10:37:15;101020.09;;;11.13;100.00
10668;BME280;5382;42.136;24.796;2022-12-26T10:39:47;101002.41;;;11.13;100.00
10668;BME280;5382;42.136;24.796;2022-12-26T10:42:22;101011.19;;;11.30;100.00
10668;BME280;5382;42.136;24.796;2022-12-26T10:44:51;101001.94;;;11.37;100.00
10668;BME280;5382;42.136;24.796;2022-12-26T10:47:22;101003.13;;;11.47;100.00
10668;BME280;5382;42.136;24.796;2022-12-26T10:49:50;101002.25;;;11.93;100.00
10668;BME280;5382;42.136;24.796;2022-12-26T10:52:22;100988.69;;;12.69;100.00
10668;BME280;5382;42.136;24.796;2022-12-26T10:54:55;100986.88;;;13.65;100.00
10668;BME280;5382;42.136;24.796;2022-12-26T10:57:25;100977.88;;;14.94;99.19
10668;BME280;5382;42.136;24.796;2022-12-26T10:59:54;100960.88;;;16.14;92.80
10668;BME280;5382;42.136;24.796;2022-12-26T11:02:23;100959.06;;;16.37;87.75
10668;BME280;5382;42.136;24.796;2022-12-26T11:04:59;100944.03;;;17.34;83.63
10668;BME280;5382;42.136;24.796;2022-12-26T11:07:29;100937.00;;;17.86;78.30
10668;BME280;5382;42.136;24.796;2022-12-26T11:09:57;100922.78;;;17.54;78.45
10668;BME280;5382;42.136;24.796;2022-12-26T11:12:35;100933.56;;;18.05;77.34
10668;BME280;5382;42.136;24.796;2022-12-26T11:15:16;100933.25;;;18.70;71.40
10668;BME280;5382;42.136;24.796;2022-12-26T11:17:45;100908.75;;;19.52;65.08
10668;BME280;5382;42.136;24.796;2022-12-26T11:20:29;100923.25;;;19.89;64.17
10668;BME280;5382;42.136;24.796;2022-12-26T11:23:22;100920.56;;;20.26;61.78
10668;BME280;5382;42.136;24.796;2022-12-26T11:25:51;100914.44;;;20.34;58.94
10668;BME280;5382;42.136;24.796;2022-12-26T11:28:24;100911.44;;;20.09;58.59
10668;BME280;5382;42.136;24.796;2022-12-26T11:30:53;100909.34;;;20.68;58.19
10668;BME280;5382;42.136;24.796;2022-12-26T11:33:23;100906.53;;;21.23;55.68
10668;BME280;5382;42.136;24.796;2022-12-26T11:36:04;100898.31;;;21.25;54.59
10668;BME280;5382;42.136;24.796;2022-12-26T11:38:42;100904.97;;;20.85;55.95
10668;BME280;5382;42.136;24.796;2022-12-26T11:41:14;100902.75;;;21.52;54.12
10668;BME280;5382;42.136;24.796;2022-12-26T11:44:15;100891.00;;;22.48;50.20
10668;BME280;5382;42.136;24.796;2022-12-26T11:46:47;100835.41;;;22.79;46.81
10668;BME280;5382;42.136;24.796;2022-12-26T11:49:18;100893.19;;;23.60;46.20
10668;BME280;5382;42.136;24.796;2022-12-26T11:51:47;100891.34;;;23.44;45.34
10668;BME280;5382;42.136;24.796;2022-12-26T11:54:26;100884.06;;;23.45;45.49
10668;BME280;5382;42.136;24.796;2022-12-26T11:57:04;100890.97;;;23.56;43.26
10668;BME280;5382;42.136;24.796;2022-12-26T11:59:35;100888.47;;;23.38;43.04
10668;BME280;5382;42.136;24.796;2022-12-26T12:02:20;100887.09;;;23.83;42.71
10668;BME280;5382;42.136;24.796;2022-12-26T12:04:48;100885.06;;;23.68;42.05
10668;BME280;5382;42.136;24.796;2022-12-26T12:07:24;100885.25;;;23.42;42.67
10668;BME280;5382;42.136;24.796;2022-12-26T12:10:01;100879.94;;;23.90;43.17
10668;BME280;5382;42.136;24.796;2022-12-26T12:12:36;100875.38;;;24.38;40.42
10668;BME280;5382;42.136;24.796;2022-12-26T12:15:09;100878.06;;;24.46;39.75
10668;BME280;5382;42.136;24.796;2022-12-26T12:17:45;100873.75;;;24.60;39.30
10668;BME280;5382;42.136;24.796;2022-12-26T12:20:24;100859.72;;;24.25;39.85
10668;BME280;5382;42.136;24.796;2022-12-26T12:23:12;100869.03;;;25.08;38.55
10668;BME280;5382;42.136;24.796;2022-12-26T12:25:55;100864.38;;;25.40;37.83
10668;BME280;5382;42.136;24.796;2022-12-26T12:28:43;100862.84;;;25.45;37.44
10668;BME280;5382;42.136;24.796;2022-12-26T12:31:19;100862.31;;;26.24;37.09
10668;BME280;5382;42.136;24.796;2022-12-26T12:34:10;100858.66;;;26.17;36.10
10668;BME280;5382;42.136;24.796;2022-12-26T12:36:49;100859.34;;;26.41;35.44
10668;BME280;5382;42.136;24.796;2022-12-26T12:39:28;100865.41;;;26.94;34.87
10668;BME280;5382;42.136;24.796;2022-12-26T12:42:16;100863.00;;;26.84;35.17
10668;BME280;5382;42.136;24.796;2022-12-26T12:45:01;100869.66;;;26.60;35.40
10668;BME280;5382;42.136;24.796;2022-12-26T12:47:38;100855.38;;;26.37;35.04
10668;BME280;5382;42.136;24.796;2022-12-26T12:50:16;100864.44;;;26.44;34.51
10668;BME280;5382;42.136;24.796;2022-12-26T12:52:51;100859.44;;;26.47;35.28
10668;BME280;5382;42.136;24.796;2022-12-26T12:55:42;100864.34;;;26.52;35.26
10668;BME280;5382;42.136;24.796;2022-12-26T12:58:20;100841.41;;;26.76;34.03
10668;BME280;5382;42.136;24.796;2022-12-26T13:00:52;100845.44;;;26.80;33.66
10668;BME280;5382;42.136;24.796;2022-12-26T13:03:26;100856.72;;;27.05;33.93
10668;BME280;5382;42.136;24.796;2022-12-26T13:06:00;100854.81;;;26.99;33.56
10668;BME280;5382;42.136;24.796;2022-12-26T13:08:34;100855.50;;;27.08;33.95
10668;BME280;5382;42.136;24.796;2022-12-26T13:11:06;100856.91;;;26.61;34.58
10668;BME280;5382;42.136;24.796;2022-12-26T13:13:37;100858.13;;;26.58;34.86
10668;BME280;5382;42.136;24.796;2022-12-26T13:16:11;100854.94;;;26.18;34.68
10668;BME280;5382;42.136;24.796;2022-12-26T13:18:44;100857.97;;;26.45;34.73
10668;BME280;5382;42.136;24.796;2022-12-26T13:21:15;100843.19;;;26.32;34.49
10668;BME280;5382;42.136;24.796;2022-12-26T13:23:44;100837.06;;;26.09;35.28
10668;BME280;5382;42.136;24.796;2022-12-26T13:26:33;100830.88;;;25.71;35.25